sensor_id;sensor_type;location;lat;lon;timestamp;P1;durP1;ratioP1;P2;durP2;ratioP2
24034;SDS011;12242;50.952;4.678;2022-07-23T00:01:33;765.85;;;703.25;;
24034;SDS011;12242;50.952;4.678;2022-07-23T00:04:04;767.38;;;704.85;;
24034;SDS011;12242;50.952;4.678;2022-07-23T00:06:32;776.70;;;712.92;;
24034;SDS011;12242;50.952;4.678;2022-07-23T00:08:59;759.67;;;697.92;;
24034;SDS011;12242;50.952;4.678;2022-07-23T00:11:27;789.22;;;723.25;;
24034;SDS011;12242;50.952;4.678;2022-07-23T00:13:54;783.08;;;719.00;;
24034;SDS011;12242;50.952;4.678;2022-07-23T00:16:25;774.88;;;711.95;;
24034;SDS011;12242;50.952;4.678;2022-07-23T00:18:53;778.63;;;714.63;;
24034;SDS011;12242;50.952;4.678;2022-07-23T00:21:20;794.63;;;729.00;;
24034;SDS011;12242;50.952;4.678;2022-07-23T00:23:47;795.92;;;729.95;;
24034;SDS011;12242;50.952;4.678;2022-07-23T00:26:15;781.58;;;717.50;;
24034;SDS011;12242;50.952;4.678;2022-07-23T00:28:43;792.65;;;726.95;;
24034;SDS011;12242;50.952;4.678;2022-07-23T00:31:12;787.63;;;722.58;;
24034;SDS011;12242;50.952;4.678;2022-07-23T00:33:40;786.03;;;721.95;;
24034;SDS011;12242;50.952;4.678;2022-07-23T00:36:07;808.13;;;740.60;;
24034;SDS011;12242;50.952;4.678;2022-07-23T00:38:35;788.10;;;723.05;;
24034;SDS011;12242;50.952;4.678;2022-07-23T00:41:05;766.78;;;704.00;;
24034;SDS011;12242;50.952;4.678;2022-07-23T00:43:33;752.10;;;691.38;;
24034;SDS011;12242;50.952;4.678;2022-07-23T00:46:02;773.10;;;709.65;;
24034;SDS011;12242;50.952;4.678;2022-07-23T00:48:30;766.30;;;703.78;;
24034;SDS011;12242;50.952;4.678;2022-07-23T00:50:58;754.53;;;693.10;;
24034;SDS011;12242;50.952;4.678;2022-07-23T00:53:28;759.67;;;697.50;;
24034;SDS011;12242;50.952;4.678;2022-07-23T00:55:58;769.08;;;706.20;;
24034;SDS011;12242;50.952;4.678;2022-07-23T00:58:25;758.70;;;695.92;;
24034;SDS011;12242;50.952;4.678;2022-07-23T01:00:53;777.90;;;713.60;;
24034;SDS011;12242;50.952;4.678;2022-07-23T01:03:21;774.00;;;710.15;;
24034;SDS011;12242;50.952;4.678;2022-07-23T01:05:48;768.08;;;704.22;;
24034;SDS011;12242;50.952;4.678;2022-07-23T01:08:18;813.72;;;743.97;;
24034;SDS011;12242;50.952;4.678;2022-07-23T01:10:48;762.50;;;699.78;;
24034;SDS011;12242;50.952;4.678;2022-07-23T01:13:17;755.55;;;693.25;;
24034;SDS011;12242;50.952;4.678;2022-07-23T01:15:45;776.40;;;711.78;;
24034;SDS011;12242;50.952;4.678;2022-07-23T01:18:12;787.55;;;721.42;;
24034;SDS011;12242;50.952;4.678;2022-07-23T01:20:39;790.30;;;723.00;;
24034;SDS011;12242;50.952;4.678;2022-07-23T01:23:07;806.85;;;739.05;;
24034;SDS011;12242;50.952;4.678;2022-07-23T01:25:36;772.58;;;708.63;;
24034;SDS011;12242;50.952;4.678;2022-07-23T01:28:14;758.13;;;695.47;;
24034;SDS011;12242;50.952;4.678;2022-07-23T01:30:44;752.05;;;690.47;;
24034;SDS011;12242;50.952;4.678;2022-07-23T01:33:11;778.35;;;713.28;;
24034;SDS011;12242;50.952;4.678;2022-07-23T01:35:39;792.20;;;725.38;;
24034;SDS011;12242;50.952;4.678;2022-07-23T01:38:06;829.13;;;757.90;;
24034;SDS011;12242;50.952;4.678;2022-07-23T01:40:33;793.38;;;726.08;;
24034;SDS011;12242;50.952;4.678;2022-07-23T01:43:01;765.38;;;701.40;;
24034;SDS011;12242;50.952;4.678;2022-07-23T01:45:34;780.90;;;715.33;;
24034;SDS011;12242;50.952;4.678;2022-07-23T01:48:01;770.58;;;706.03;;
24034;SDS011;12242;50.952;4.678;2022-07-23T01:50:36;794.80;;;727.08;;
24034;SDS011;12242;50.952;4.678;2022-07-23T01:53:04;793.47;;;726.75;;
24034;SDS011;12242;50.952;4.678;2022-07-23T01:55:31;829.53;;;757.25;;
24034;SDS011;12242;50.952;4.678;2022-07-23T01:57:59;770.50;;;705.88;;
24034;SDS011;12242;50.952;4.678;2022-07-23T02:00:27;786.75;;;720.70;;
24034;SDS011;12242;50.952;4.678;2022-07-23T02:02:57;781.53;;;716.35;;
24034;SDS011;12242;50.952;4.678;2022-07-23T02:05:27;776.53;;;711.20;;
24034;SDS011;12242;50.952;4.678;2022-07-23T02:07:57;769.83;;;705.10;;
24034;SDS011;12242;50.952;4.678;2022-07-23T02:10:25;764.92;;;701.65;;
24034;SDS011;12242;50.952;4.678;2022-07-23T02:12:53;750.47;;;688.45;;
24034;SDS011;12242;50.952;4.678;2022-07-23T02:15:21;752.88;;;690.22;;
24034;SDS011;12242;50.952;4.678;2022-07-23T02:17:51;758.13;;;695.60;;
24034;SDS011;12242;50.952;4.678;2022-07-23T02:20:18;801.35;;;733.00;;
24034;SDS011;12242;50.952;4.678;2022-07-23T02:22:45;765.10;;;701.33;;
24034;SDS011;12242;50.952;4.678;2022-07-23T02:25:15;749.45;;;687.17;;
24034;SDS011;12242;50.952;4.678;2022-07-23T02:27:43;738.20;;;677.42;;
24034;SDS011;12242;50.952;4.678;2022-07-23T02:30:11;809.22;;;740.28;;
24034;SDS011;12242;50.952;4.678;2022-07-23T02:32:38;733.63;;;673.28;;
24034;SDS011;12242;50.952;4.678;2022-07-23T02:35:06;739.78;;;679.53;;
24034;SDS011;12242;50.952;4.678;2022-07-23T02:37:34;747.28;;;684.15;;
24034;SDS011;12242;50.952;4.678;2022-07-23T02:40:04;733.42;;;672.40;;
24034;SDS011;12242;50.952;4.678;2022-07-23T02:42:32;763.85;;;699.58;;
24034;SDS011;12242;50.952;4.678;2022-07-23T02:45:05;819.78;;;749.72;;
24034;SDS011;12242;50.952;4.678;2022-07-23T02:47:32;765.90;;;702.15;;
24034;SDS011;12242;50.952;4.678;2022-07-23T02:50:00;759.92;;;695.95;;
24034;SDS011;12242;50.952;4.678;2022-07-23T02:52:27;749.47;;;686.90;;
24034;SDS011;12242;50.952;4.678;2022-07-23T02:54:58;775.95;;;710.42;;
24034;SDS011;12242;50.952;4.678;2022-07-23T02:57:30;738.95;;;677.65;;
24034;SDS011;12242;50.952;4.678;2022-07-23T02:59:57;819.92;;;749.92;;
24034;SDS011;12242;50.952;4.678;2022-07-23T03:02:24;838.45;;;764.63;;
24034;SDS011;12242;50.952;4.678;2022-07-23T03:04:54;865.90;;;788.55;;
24034;SDS011;12242;50.952;4.678;2022-07-23T03:07:23;775.97;;;709.75;;
24034;SDS011;12242;50.952;4.678;2022-07-23T03:09:51;747.58;;;684.33;;
24034;SDS011;12242;50.952;4.678;2022-07-23T03:12:19;800.03;;;730.83;;
24034;SDS011;12242;50.952;4.678;2022-07-23T03:14:46;856.28;;;780.25;;
24034;SDS011;12242;50.952;4.678;2022-07-23T03:17:14;759.47;;;695.28;;
24034;SDS011;12242;50.952;4.678;2022-07-23T03:19:45;760.00;;;695.20;;
24034;SDS011;12242;50.952;4.678;2022-07-23T03:22:14;748.15;;;684.90;;
24034;SDS011;12242;50.952;4.678;2022-07-23T03:24:42;757.33;;;693.25;;
24034;SDS011;12242;50.952;4.678;2022-07-23T03:27:22;756.80;;;693.30;;
24034;SDS011;12242;50.952;4.678;2022-07-23T03:29:54;759.17;;;695.58;;
24034;SDS011;12242;50.952;4.678;2022-07-23T03:32:22;745.35;;;682.15;;
24034;SDS011;12242;50.952;4.678;2022-07-23T03:34:50;733.85;;;671.42;;
24034;SDS011;12242;50.952;4.678;2022-07-23T03:37:18;729.85;;;668.08;;
24034;SDS011;12242;50.952;4.678;2022-07-23T03:39:47;758.85;;;693.67;;
24034;SDS011;12242;50.952;4.678;2022-07-23T03:42:18;750.20;;;686.42;;
24034;SDS011;12242;50.952;4.678;2022-07-23T03:44:45;725.25;;;664.15;;
24034;SDS011;12242;50.952;4.678;2022-07-23T03:47:13;751.42;;;687.67;;
24034;SDS011;12242;50.952;4.678;2022-07-23T03:49:42;757.15;;;692.55;;
24034;SDS011;12242;50.952;4.678;2022-07-23T03:52:12;743.13;;;680.60;;
24034;SDS011;12242;50.952;4.678;2022-07-23T03:54:40;739.47;;;677.15;;
24034;SDS011;12242;50.952;4.678;2022-07-23T03:57:10;751.13;;;687.72;;
24034;SDS011;12242;50.952;4.678;2022-07-23T03:59:38;726.03;;;665.30;;
24034;SDS011;12242;50.952;4.678;2022-07-23T04:02:05;753.20;;;688.20;;
24034;SDS011;12242;50.952;4.678;2022-07-23T04:04:33;731.05;;;669.17;;
24034;SDS011;12242;50.952;4.678;2022-07-23T04:07:00;743.03;;;679.00;;
24034;SDS011;12242;50.952;4.678;2022-07-23T04:09:28;751.00;;;686.70;;
24034;SDS011;12242;50.952;4.678;2022-07-23T04:11:55;744.58;;;679.78;;
24034;SDS011;12242;50.952;4.678;2022-07-23T04:14:23;743.83;;;679.47;;
24034;SDS011;12242;50.952;4.678;2022-07-23T04:16:51;746.88;;;682.33;;
24034;SDS011;12242;50.952;4.678;2022-07-23T04:19:18;755.60;;;689.83;;
24034;SDS011;12242;50.952;4.678;2022-07-23T04:21:47;738.83;;;675.15;;
24034;SDS011;12242;50.952;4.678;2022-07-23T04:24:15;772.05;;;704.33;;
24034;SDS011;12242;50.952;4.678;2022-07-23T04:26:45;745.13;;;680.83;;
24034;SDS011;12242;50.952;4.678;2022-07-23T04:29:13;788.88;;;719.38;;
24034;SDS011;12242;50.952;4.678;2022-07-23T04:31:40;856.97;;;778.45;;
24034;SDS011;12242;50.952;4.678;2022-07-23T04:34:08;765.65;;;698.38;;
24034;SDS011;12242;50.952;4.678;2022-07-23T04:36:36;753.95;;;688.22;;
24034;SDS011;12242;50.952;4.678;2022-07-23T04:39:03;762.55;;;695.67;;
24034;SDS011;12242;50.952;4.678;2022-07-23T04:41:31;749.17;;;682.88;;
24034;SDS011;12242;50.952;4.678;2022-07-23T04:43:59;764.67;;;697.88;;
24034;SDS011;12242;50.952;4.678;2022-07-23T04:46:30;801.17;;;730.08;;
24034;SDS011;12242;50.952;4.678;2022-07-23T04:48:57;796.42;;;726.03;;
24034;SDS011;12242;50.952;4.678;2022-07-23T04:51:26;792.38;;;722.88;;
24034;SDS011;12242;50.952;4.678;2022-07-23T04:53:53;803.80;;;732.78;;
24034;SDS011;12242;50.952;4.678;2022-07-23T04:56:24;798.28;;;727.72;;
24034;SDS011;12242;50.952;4.678;2022-07-23T04:58:52;798.30;;;727.97;;
24034;SDS011;12242;50.952;4.678;2022-07-23T05:01:24;796.35;;;725.70;;
24034;SDS011;12242;50.952;4.678;2022-07-23T05:03:54;792.40;;;723.22;;
24034;SDS011;12242;50.952;4.678;2022-07-23T05:06:24;785.60;;;717.17;;
24034;SDS011;12242;50.952;4.678;2022-07-23T05:08:55;812.00;;;741.20;;
24034;SDS011;12242;50.952;4.678;2022-07-23T05:11:23;826.55;;;753.30;;
24034;SDS011;12242;50.952;4.678;2022-07-23T05:13:53;832.40;;;758.75;;
24034;SDS011;12242;50.952;4.678;2022-07-23T05:16:21;828.25;;;755.50;;
24034;SDS011;12242;50.952;4.678;2022-07-23T05:18:49;826.83;;;754.28;;
24034;SDS011;12242;50.952;4.678;2022-07-23T05:21:17;822.05;;;750.50;;
24034;SDS011;12242;50.952;4.678;2022-07-23T05:23:45;818.10;;;747.17;;
24034;SDS011;12242;50.952;4.678;2022-07-23T05:26:13;822.50;;;751.03;;
24034;SDS011;12242;50.952;4.678;2022-07-23T05:28:43;831.47;;;758.97;;
24034;SDS011;12242;50.952;4.678;2022-07-23T05:31:15;828.80;;;756.78;;
24034;SDS011;12242;50.952;4.678;2022-07-23T05:33:45;828.67;;;756.17;;
24034;SDS011;12242;50.952;4.678;2022-07-23T05:36:15;846.25;;;773.03;;
24034;SDS011;12242;50.952;4.678;2022-07-23T05:38:43;836.60;;;764.65;;
24034;SDS011;12242;50.952;4.678;2022-07-23T05:41:12;836.45;;;763.97;;
24034;SDS011;12242;50.952;4.678;2022-07-23T05:43:42;844.40;;;772.05;;
24034;SDS011;12242;50.952;4.678;2022-07-23T05:46:12;842.95;;;769.90;;
24034;SDS011;12242;50.952;4.678;2022-07-23T05:48:39;829.50;;;758.63;;
24034;SDS011;12242;50.952;4.678;2022-07-23T05:51:08;839.45;;;767.70;;
24034;SDS011;12242;50.952;4.678;2022-07-23T05:53:41;858.42;;;783.65;;
24034;SDS011;12242;50.952;4.678;2022-07-23T05:56:08;837.42;;;766.40;;
24034;SDS011;12242;50.952;4.678;2022-07-23T05:58:36;860.40;;;786.47;;
24034;SDS011;12242;50.952;4.678;2022-07-23T06:01:03;855.35;;;780.58;;
24034;SDS011;12242;50.952;4.678;2022-07-23T06:03:33;807.33;;;737.90;;
24034;SDS011;12242;50.952;4.678;2022-07-23T06:06:01;726.67;;;665.25;;
24034;SDS011;12242;50.952;4.678;2022-07-23T06:08:31;726.83;;;665.95;;
24034;SDS011;12242;50.952;4.678;2022-07-23T06:10:58;668.92;;;613.92;;
24034;SDS011;12242;50.952;4.678;2022-07-23T06:13:26;704.17;;;645.95;;
24034;SDS011;12242;50.952;4.678;2022-07-23T06:15:54;674.03;;;620.42;;
24034;SDS011;12242;50.952;4.678;2022-07-23T06:18:22;692.88;;;636.28;;
24034;SDS011;12242;50.952;4.678;2022-07-23T06:20:49;696.42;;;639.83;;
24034;SDS011;12242;50.952;4.678;2022-07-23T06:23:25;728.10;;;669.15;;
24034;SDS011;12242;50.952;4.678;2022-07-23T06:25:53;727.85;;;668.40;;
24034;SDS011;12242;50.952;4.678;2022-07-23T06:28:20;750.10;;;687.72;;
24034;SDS011;12242;50.952;4.678;2022-07-23T06:30:48;731.95;;;671.78;;
24034;SDS011;12242;50.952;4.678;2022-07-23T06:33:15;734.50;;;673.67;;
24034;SDS011;12242;50.952;4.678;2022-07-23T06:35:43;726.88;;;667.55;;
24034;SDS011;12242;50.952;4.678;2022-07-23T06:38:10;770.63;;;706.63;;
24034;SDS011;12242;50.952;4.678;2022-07-23T06:40:39;751.70;;;689.47;;
24034;SDS011;12242;50.952;4.678;2022-07-23T06:43:10;747.42;;;684.97;;
24034;SDS011;12242;50.952;4.678;2022-07-23T06:45:40;714.90;;;656.40;;
24034;SDS011;12242;50.952;4.678;2022-07-23T06:48:07;697.55;;;640.72;;
24034;SDS011;12242;50.952;4.678;2022-07-23T06:50:35;699.88;;;642.72;;
24034;SDS011;12242;50.952;4.678;2022-07-23T06:53:03;614.50;;;563.92;;
24034;SDS011;12242;50.952;4.678;2022-07-23T06:55:30;581.78;;;539.05;;
24034;SDS011;12242;50.952;4.678;2022-07-23T06:58:05;554.38;;;515.28;;
24034;SDS011;12242;50.952;4.678;2022-07-23T07:00:33;596.47;;;554.38;;
24034;SDS011;12242;50.952;4.678;2022-07-23T07:03:01;590.33;;;548.33;;
24034;SDS011;12242;50.952;4.678;2022-07-23T07:05:29;611.80;;;568.05;;
24034;SDS011;12242;50.952;4.678;2022-07-23T07:07:57;567.17;;;526.97;;
24034;SDS011;12242;50.952;4.678;2022-07-23T07:10:24;636.22;;;588.97;;
24034;SDS011;12242;50.952;4.678;2022-07-23T07:12:51;615.65;;;571.60;;
24034;SDS011;12242;50.952;4.678;2022-07-23T07:15:24;583.67;;;541.42;;
24034;SDS011;12242;50.952;4.678;2022-07-23T07:17:51;603.80;;;560.45;;
24034;SDS011;12242;50.952;4.678;2022-07-23T07:20:19;541.17;;;503.25;;
24034;SDS011;12242;50.952;4.678;2022-07-23T07:22:48;519.90;;;483.15;;
24034;SDS011;12242;50.952;4.678;2022-07-23T07:25:16;575.83;;;535.03;;
24034;SDS011;12242;50.952;4.678;2022-07-23T07:27:44;539.53;;;501.30;;
24034;SDS011;12242;50.952;4.678;2022-07-23T07:30:12;493.77;;;457.05;;
24034;SDS011;12242;50.952;4.678;2022-07-23T07:32:40;510.45;;;469.75;;
24034;SDS011;12242;50.952;4.678;2022-07-23T07:35:24;514.40;;;472.10;;
24034;SDS011;12242;50.952;4.678;2022-07-23T07:37:54;526.47;;;482.80;;
24034;SDS011;12242;50.952;4.678;2022-07-23T07:40:24;545.85;;;499.55;;
24034;SDS011;12242;50.952;4.678;2022-07-23T07:42:59;535.20;;;492.33;;
24034;SDS011;12242;50.952;4.678;2022-07-23T07:45:27;529.05;;;483.75;;
24034;SDS011;12242;50.952;4.678;2022-07-23T07:47:56;567.58;;;517.92;;
24034;SDS011;12242;50.952;4.678;2022-07-23T07:50:24;548.20;;;500.23;;
24034;SDS011;12242;50.952;4.678;2022-07-23T07:52:52;597.58;;;542.60;;
24034;SDS011;12242;50.952;4.678;2022-07-23T07:55:20;694.92;;;628.60;;
24034;SDS011;12242;50.952;4.678;2022-07-23T07:57:52;681.15;;;616.58;;
24034;SDS011;12242;50.952;4.678;2022-07-23T08:00:20;732.70;;;661.92;;
24034;SDS011;12242;50.952;4.678;2022-07-23T08:02:51;702.80;;;636.15;;
24034;SDS011;12242;50.952;4.678;2022-07-23T08:05:25;712.17;;;644.25;;
24034;SDS011;12242;50.952;4.678;2022-07-23T08:07:55;721.55;;;653.50;;
24034;SDS011;12242;50.952;4.678;2022-07-23T08:10:24;718.17;;;648.83;;
24034;SDS011;12242;50.952;4.678;2022-07-23T08:12:55;728.08;;;657.50;;
24034;SDS011;12242;50.952;4.678;2022-07-23T08:15:28;726.50;;;655.55;;
24034;SDS011;12242;50.952;4.678;2022-07-23T08:17:58;693.72;;;625.63;;
24034;SDS011;12242;50.952;4.678;2022-07-23T08:20:26;704.28;;;636.17;;
24034;SDS011;12242;50.952;4.678;2022-07-23T08:25:37;687.95;;;623.03;;
24034;SDS011;12242;50.952;4.678;2022-07-23T08:28:15;680.90;;;617.85;;
24034;SDS011;12242;50.952;4.678;2022-07-23T08:30:44;693.50;;;630.50;;
24034;SDS011;12242;50.952;4.678;2022-07-23T08:33:13;694.30;;;634.92;;
24034;SDS011;12242;50.952;4.678;2022-07-23T08:36:00;666.88;;;612.20;;
24034;SDS011;12242;50.952;4.678;2022-07-23T08:38:30;598.85;;;550.00;;
24034;SDS011;12242;50.952;4.678;2022-07-23T08:41:01;634.83;;;583.45;;
24034;SDS011;12242;50.952;4.678;2022-07-23T08:43:32;614.10;;;565.03;;
24034;SDS011;12242;50.952;4.678;2022-07-23T08:46:01;583.88;;;537.33;;
24034;SDS011;12242;50.952;4.678;2022-07-23T08:48:33;579.47;;;533.17;;
24034;SDS011;12242;50.952;4.678;2022-07-23T08:51:08;597.15;;;549.45;;
24034;SDS011;12242;50.952;4.678;2022-07-23T08:53:37;568.78;;;524.83;;
24034;SDS011;12242;50.952;4.678;2022-07-23T08:56:08;542.50;;;500.90;;
24034;SDS011;12242;50.952;4.678;2022-07-23T08:58:36;555.97;;;513.92;;
24034;SDS011;12242;50.952;4.678;2022-07-23T09:01:06;509.50;;;470.00;;
24034;SDS011;12242;50.952;4.678;2022-07-23T09:03:36;414.02;;;379.33;;
24034;SDS011;12242;50.952;4.678;2022-07-23T09:06:06;391.15;;;359.05;;
24034;SDS011;12242;50.952;4.678;2022-07-23T09:08:37;357.05;;;328.73;;
24034;SDS011;12242;50.952;4.678;2022-07-23T09:11:10;346.15;;;319.50;;
24034;SDS011;12242;50.952;4.678;2022-07-23T09:13:46;361.88;;;333.90;;
24034;SDS011;12242;50.952;4.678;2022-07-23T09:16:20;372.88;;;343.73;;
24034;SDS011;12242;50.952;4.678;2022-07-23T09:19:01;278.42;;;257.58;;
24034;SDS011;12242;50.952;4.678;2022-07-23T09:21:36;312.55;;;289.17;;
24034;SDS011;12242;50.952;4.678;2022-07-23T09:24:06;293.65;;;271.80;;
24034;SDS011;12242;50.952;4.678;2022-07-23T09:29:18;280.02;;;259.42;;
24034;SDS011;12242;50.952;4.678;2022-07-23T09:31:51;285.77;;;264.65;;
24034;SDS011;12242;50.952;4.678;2022-07-23T09:36:56;275.27;;;255.38;;
24034;SDS011;12242;50.952;4.678;2022-07-23T09:39:27;233.25;;;215.90;;
24034;SDS011;12242;50.952;4.678;2022-07-23T09:44:50;242.02;;;223.32;;
24034;SDS011;12242;50.952;4.678;2022-07-23T09:47:23;264.13;;;244.20;;
24034;SDS011;12242;50.952;4.678;2022-07-23T09:50:01;250.27;;;231.30;;
24034;SDS011;12242;50.952;4.678;2022-07-23T09:52:42;256.65;;;237.57;;
24034;SDS011;12242;50.952;4.678;2022-07-23T09:55:11;302.95;;;280.35;;
24034;SDS011;12242;50.952;4.678;2022-07-23T09:57:40;320.70;;;296.88;;
24034;SDS011;12242;50.952;4.678;2022-07-23T10:00:09;327.88;;;303.17;;
24034;SDS011;12242;50.952;4.678;2022-07-23T10:02:37;309.65;;;287.00;;
24034;SDS011;12242;50.952;4.678;2022-07-23T10:05:06;331.45;;;307.23;;
24034;SDS011;12242;50.952;4.678;2022-07-23T10:07:37;348.52;;;323.48;;
24034;SDS011;12242;50.952;4.678;2022-07-23T10:10:06;252.07;;;234.27;;
24034;SDS011;12242;50.952;4.678;2022-07-23T10:12:35;316.20;;;293.65;;
24034;SDS011;12242;50.952;4.678;2022-07-23T10:15:18;384.10;;;355.65;;
24034;SDS011;12242;50.952;4.678;2022-07-23T10:17:48;290.40;;;269.75;;
24034;SDS011;12242;50.952;4.678;2022-07-23T10:20:19;278.23;;;258.80;;
24034;SDS011;12242;50.952;4.678;2022-07-23T10:23:09;371.95;;;345.20;;
24034;SDS011;12242;50.952;4.678;2022-07-23T10:37:26;356.30;;;330.58;;
24034;SDS011;12242;50.952;4.678;2022-07-23T10:40:12;375.00;;;348.25;;
24034;SDS011;12242;50.952;4.678;2022-07-23T10:42:44;329.83;;;306.50;;
24034;SDS011;12242;50.952;4.678;2022-07-23T10:45:32;362.60;;;337.27;;
24034;SDS011;12242;50.952;4.678;2022-07-23T10:48:15;391.67;;;363.77;;
24034;SDS011;12242;50.952;4.678;2022-07-23T11:00:12;429.55;;;398.00;;
24034;SDS011;12242;50.952;4.678;2022-07-23T11:02:37;389.60;;;361.55;;
24034;SDS011;12242;50.952;4.678;2022-07-23T11:05:10;450.58;;;417.58;;
24034;SDS011;12242;50.952;4.678;2022-07-23T11:10:38;473.45;;;438.77;;
24034;SDS011;12242;50.952;4.678;2022-07-23T11:19:03;425.17;;;395.13;;
24034;SDS011;12242;50.952;4.678;2022-07-23T11:34:53;440.38;;;408.80;;
24034;SDS011;12242;50.952;4.678;2022-07-23T11:37:37;427.10;;;396.08;;
24034;SDS011;12242;50.952;4.678;2022-07-23T11:40:11;462.55;;;429.17;;
24034;SDS011;12242;50.952;4.678;2022-07-23T11:42:50;451.42;;;418.33;;
24034;SDS011;12242;50.952;4.678;2022-07-23T11:45:19;464.45;;;430.35;;
24034;SDS011;12242;50.952;4.678;2022-07-23T11:47:47;431.00;;;399.88;;
24034;SDS011;12242;50.952;4.678;2022-07-23T11:50:15;494.73;;;456.77;;
24034;SDS011;12242;50.952;4.678;2022-07-23T11:52:44;487.73;;;451.38;;
24034;SDS011;12242;50.952;4.678;2022-07-23T11:55:13;448.70;;;415.92;;
24034;SDS011;12242;50.952;4.678;2022-07-23T11:57:46;468.30;;;433.70;;
24034;SDS011;12242;50.952;4.678;2022-07-23T12:00:15;496.15;;;459.05;;
24034;SDS011;12242;50.952;4.678;2022-07-23T12:02:50;528.60;;;487.73;;
24034;SDS011;12242;50.952;4.678;2022-07-23T12:05:22;541.45;;;498.33;;
24034;SDS011;12242;50.952;4.678;2022-07-23T12:07:59;502.42;;;464.35;;
24034;SDS011;12242;50.952;4.678;2022-07-23T12:13:12;509.65;;;471.50;;
24034;SDS011;12242;50.952;4.678;2022-07-23T12:15:45;496.27;;;459.63;;
24034;SDS011;12242;50.952;4.678;2022-07-23T12:18:19;460.42;;;426.58;;
24034;SDS011;12242;50.952;4.678;2022-07-23T12:20:49;461.30;;;427.75;;
24034;SDS011;12242;50.952;4.678;2022-07-23T12:23:20;471.02;;;435.83;;
24034;SDS011;12242;50.952;4.678;2022-07-23T12:25:48;479.52;;;443.80;;
24034;SDS011;12242;50.952;4.678;2022-07-23T12:28:19;470.60;;;435.73;;
24034;SDS011;12242;50.952;4.678;2022-07-23T12:30:57;521.42;;;482.17;;
24034;SDS011;12242;50.952;4.678;2022-07-23T12:36:05;495.98;;;458.98;;
24034;SDS011;12242;50.952;4.678;2022-07-23T12:41:08;508.85;;;470.60;;
24034;SDS011;12242;50.952;4.678;2022-07-23T12:43:37;445.65;;;413.42;;
24034;SDS011;12242;50.952;4.678;2022-07-23T12:46:15;510.88;;;471.98;;
24034;SDS011;12242;50.952;4.678;2022-07-23T12:53:58;497.35;;;459.83;;
24034;SDS011;12242;50.952;4.678;2022-07-23T12:56:34;427.35;;;396.92;;
24034;SDS011;12242;50.952;4.678;2022-07-23T12:59:08;472.67;;;437.30;;
24034;SDS011;12242;50.952;4.678;2022-07-23T13:01:41;462.30;;;428.23;;
24034;SDS011;12242;50.952;4.678;2022-07-23T13:04:12;486.40;;;450.40;;
24034;SDS011;12242;50.952;4.678;2022-07-23T13:06:47;440.13;;;407.38;;
24034;SDS011;12242;50.952;4.678;2022-07-23T13:09:16;418.70;;;388.48;;
24034;SDS011;12242;50.952;4.678;2022-07-23T13:11:45;438.15;;;406.33;;
24034;SDS011;12242;50.952;4.678;2022-07-23T13:14:17;459.83;;;425.40;;
24034;SDS011;12242;50.952;4.678;2022-07-23T13:16:50;412.48;;;383.27;;
24034;SDS011;12242;50.952;4.678;2022-07-23T13:19:19;483.80;;;447.85;;
24034;SDS011;12242;50.952;4.678;2022-07-23T13:21:51;521.78;;;481.98;;
24034;SDS011;12242;50.952;4.678;2022-07-23T13:24:20;492.95;;;455.88;;
24034;SDS011;12242;50.952;4.678;2022-07-23T13:26:52;452.95;;;418.95;;
24034;SDS011;12242;50.952;4.678;2022-07-23T13:29:20;462.70;;;428.73;;
24034;SDS011;12242;50.952;4.678;2022-07-23T13:31:49;453.65;;;419.63;;
24034;SDS011;12242;50.952;4.678;2022-07-23T13:34:17;516.85;;;476.58;;
24034;SDS011;12242;50.952;4.678;2022-07-23T13:36:45;429.05;;;397.52;;
24034;SDS011;12242;50.952;4.678;2022-07-23T13:39:13;475.88;;;440.15;;
24034;SDS011;12242;50.952;4.678;2022-07-23T13:41:43;488.65;;;451.80;;
24034;SDS011;12242;50.952;4.678;2022-07-23T13:47:05;411.88;;;382.13;;
24034;SDS011;12242;50.952;4.678;2022-07-23T13:49:33;426.08;;;395.55;;
24034;SDS011;12242;50.952;4.678;2022-07-23T13:52:03;440.90;;;408.88;;
24034;SDS011;12242;50.952;4.678;2022-07-23T13:54:36;461.05;;;427.30;;
24034;SDS011;12242;50.952;4.678;2022-07-23T13:57:04;464.98;;;430.35;;
24034;SDS011;12242;50.952;4.678;2022-07-23T13:59:32;491.08;;;454.15;;
24034;SDS011;12242;50.952;4.678;2022-07-23T14:02:04;438.65;;;406.25;;
24034;SDS011;12242;50.952;4.678;2022-07-23T14:04:51;487.35;;;450.88;;
24034;SDS011;12242;50.952;4.678;2022-07-23T14:07:19;508.20;;;469.85;;
24034;SDS011;12242;50.952;4.678;2022-07-23T14:09:48;438.40;;;406.48;;
24034;SDS011;12242;50.952;4.678;2022-07-23T14:12:15;407.67;;;378.98;;
24034;SDS011;12242;50.952;4.678;2022-07-23T14:14:43;511.20;;;471.92;;
24034;SDS011;12242;50.952;4.678;2022-07-23T14:17:14;448.95;;;415.88;;
24034;SDS011;12242;50.952;4.678;2022-07-23T14:19:42;428.48;;;396.73;;
24034;SDS011;12242;50.952;4.678;2022-07-23T14:22:10;428.75;;;396.98;;
24034;SDS011;12242;50.952;4.678;2022-07-23T14:24:41;471.17;;;435.70;;
24034;SDS011;12242;50.952;4.678;2022-07-23T14:27:24;436.98;;;404.77;;
24034;SDS011;12242;50.952;4.678;2022-07-23T14:29:53;441.55;;;408.33;;
24034;SDS011;12242;50.952;4.678;2022-07-23T14:32:22;428.98;;;397.27;;
24034;SDS011;12242;50.952;4.678;2022-07-23T14:34:54;431.35;;;400.02;;
24034;SDS011;12242;50.952;4.678;2022-07-23T14:37:24;446.02;;;412.77;;
24034;SDS011;12242;50.952;4.678;2022-07-23T14:39:52;435.67;;;403.50;;
24034;SDS011;12242;50.952;4.678;2022-07-23T14:42:20;383.42;;;355.52;;
24034;SDS011;12242;50.952;4.678;2022-07-23T14:44:47;421.13;;;390.65;;
24034;SDS011;12242;50.952;4.678;2022-07-23T14:47:16;407.50;;;378.20;;
24034;SDS011;12242;50.952;4.678;2022-07-23T14:49:48;358.60;;;333.80;;
24034;SDS011;12242;50.952;4.678;2022-07-23T14:52:16;369.65;;;344.02;;
24034;SDS011;12242;50.952;4.678;2022-07-23T14:54:44;388.33;;;360.95;;
24034;SDS011;12242;50.952;4.678;2022-07-23T14:57:11;366.58;;;341.00;;
24034;SDS011;12242;50.952;4.678;2022-07-23T14:59:41;379.63;;;353.50;;
24034;SDS011;12242;50.952;4.678;2022-07-23T15:02:09;359.23;;;334.85;;
24034;SDS011;12242;50.952;4.678;2022-07-23T15:04:39;369.92;;;344.38;;
24034;SDS011;12242;50.952;4.678;2022-07-23T15:07:06;340.40;;;317.65;;
24034;SDS011;12242;50.952;4.678;2022-07-23T15:09:35;382.63;;;356.40;;
24034;SDS011;12242;50.952;4.678;2022-07-23T15:12:03;409.30;;;379.90;;
24034;SDS011;12242;50.952;4.678;2022-07-23T15:14:38;375.52;;;349.48;;
24034;SDS011;12242;50.952;4.678;2022-07-23T15:17:07;370.45;;;344.70;;
24034;SDS011;12242;50.952;4.678;2022-07-23T15:19:35;388.92;;;361.63;;
24034;SDS011;12242;50.952;4.678;2022-07-23T15:22:03;398.85;;;370.33;;